Time;durP1;ratioP1;P1;durP2;ratioP2;P2;SDS_P1;SDS_P2;PMS_P1;PMS_P2;Temp;Humidity;BMP_temperature;BMP_pressure;BME280_temperature;BME280_humidity;BME280_pressure;Samples;Min_cycle;Max_cycle;Signal;HPM_P1;HPM_P2
2021/12/20 00:01:20;;;;;;;8.88;1.80;;;7.00;99.90;;;;;;4213844;28;20409;-90
2021/12/20 00:03:22;;;;;;;12.82;2.03;;;6.30;99.90;;;;;;4213145;28;20090;-90
2021/12/20 00:05:24;;;;;;;8.75;1.63;;;7.40;99.90;;;;;;4227313;28;20102;-90
2021/12/20 00:07:24;;;;;;;10.43;1.50;;;6.50;99.90;;;;;;4213971;28;20044;-90
2021/12/20 00:09:25;;;;;;;17.23;1.77;;;6.30;99.90;;;;;;4214512;28;20048;-90
2021/12/20 00:11:26;;;;;;;11.57;2.20;;;6.30;99.90;;;;;;4200908;28;20083;-90
2021/12/20 00:13:27;;;;;;;17.10;2.08;;;6.30;99.90;;;;;;4196008;28;20054;-90
2021/12/20 00:15:27;;;;;;;11.88;1.60;;;7.00;99.90;;;;;;4213690;28;20382;-90
2021/12/20 00:17:28;;;;;;;11.63;1.58;;;6.30;99.90;;;;;;4214363;28;20059;-90
2021/12/20 00:19:29;;;;;;;17.90;2.10;;;6.40;99.90;;;;;;4196232;28;20044;-90
2021/12/20 00:21:30;;;;;;;16.38;2.05;;;6.30;99.90;;;;;;4212753;28;20564;-90
2021/12/20 00:23:33;;;;;;;8.10;1.20;;;7.10;99.90;;;;;;4212977;28;20047;-89
2021/12/20 00:25:36;;;;;;;12.63;1.75;;;6.30;99.90;;;;;;4196294;28;20186;-90
2021/12/20 00:27:38;;;;;;;13.85;2.05;;;6.30;99.90;;;;;;4212981;28;20512;-90
2021/12/20 00:29:44;;;;;;;12.98;2.90;;;6.50;99.90;;;;;;4213105;28;20118;-90
2021/12/20 00:31:45;;;;;;;9.02;2.10;;;6.40;99.90;;;;;;4195904;28;20044;-89
2021/12/20 00:33:45;;;;;;;10.25;1.70;;;6.20;99.90;;;;;;4213977;28;20426;-89
2021/12/20 00:35:47;;;;;;;8.40;1.40;;;6.20;99.90;;;;;;4212265;28;20052;-89
2021/12/20 00:40:20;;;;;;;18.42;2.38;;;6.80;99.90;;;;;;4229829;28;20094;-89
2021/12/20 00:42:21;;;;;;;14.30;1.50;;;6.20;99.90;;;;;;4230036;28;20084;-89
2021/12/20 00:44:24;;;;;;;14.82;1.50;;;6.20;99.90;;;;;;4231757;28;20054;-87
2021/12/20 00:46:25;;;;;;;12.90;1.63;;;6.20;99.90;;;;;;4230007;28;20060;-89
2021/12/20 00:48:27;;;;;;;16.02;1.75;;;6.90;99.90;;;;;;4211769;28;20127;-87
2021/12/20 00:50:29;;;;;;;9.40;1.48;;;6.20;99.90;;;;;;4213115;28;20131;-88
2021/12/20 00:52:29;;;;;;;12.50;1.52;;;6.90;99.90;;;;;;4212798;28;20051;-87
2021/12/20 00:54:30;;;;;;;14.07;2.33;;;6.20;99.90;;;;;;4214012;28;20071;-87
2021/12/20 00:56:31;;;;;;;19.85;1.63;;;7.10;99.90;;;;;;4195568;28;20091;-86
2021/12/20 00:58:33;;;;;;;10.85;1.10;;;6.10;99.90;;;;;;4213954;28;20488;-87
2021/12/20 01:00:39;;;;;;;5.90;1.00;;;7.00;99.90;;;;;;4214189;28;20047;-87
2021/12/20 01:02:39;;;;;;;18.65;2.70;;;6.10;99.90;;;;;;4217384;28;20048;-87
2021/12/20 01:04:40;;;;;;;8.25;1.77;;;6.10;99.90;;;;;;4222768;28;20068;-87
2021/12/20 01:06:41;;;;;;;12.38;3.13;;;7.00;99.90;;;;;;4196590;28;20062;-87
2021/12/20 01:08:42;;;;;;;8.90;0.95;;;6.20;99.90;;;;;;4230965;28;20031;-88
2021/12/20 01:10:49;;;;;;;5.63;1.23;;;6.80;99.90;;;;;;4197962;28;20052;-87
2021/12/20 01:12:53;;;;;;;7.50;1.23;;;6.10;99.90;;;;;;4214981;28;20408;-87
2021/12/20 01:14:59;;;;;;;8.02;0.90;;;6.10;99.90;;;;;;4215585;28;20101;-87
2021/12/20 01:17:05;;;;;;;8.25;1.38;;;6.10;99.90;;;;;;4230582;28;20040;-87
2021/12/20 01:19:06;;;;;;;11.40;0.90;;;5.90;99.90;;;;;;4225042;28;20036;-87
2021/12/20 01:21:08;;;;;;;7.47;1.00;;;7.00;99.90;;;;;;4232087;28;20075;-87
2021/12/20 01:23:11;;;;;;;7.88;1.02;;;6.50;99.90;;;;;;4232452;28;20082;-87
2021/12/20 01:25:13;;;;;;;4.07;0.93;;;6.60;99.90;;;;;;4230639;28;20028;-87
2021/12/20 01:27:14;;;;;;;10.25;1.10;;;6.80;99.90;;;;;;4217157;28;20056;-87
2021/12/20 01:29:15;;;;;;;6.88;0.98;;;6.10;99.90;;;;;;4215747;28;20179;-88
2021/12/20 01:31:16;;;;;;;7.72;1.20;;;6.00;99.90;;;;;;4215667;28;20052;-87
2021/12/20 01:33:17;;;;;;;13.65;0.90;;;6.00;99.90;;;;;;4216024;28;20044;-88
2021/12/20 01:35:20;;;;;;;6.45;0.70;;;6.00;99.90;;;;;;4198120;28;20093;-87
2021/12/20 01:37:21;;;;;;;4.72;0.77;;;5.90;99.90;;;;;;4227580;28;20418;-87
2021/12/20 01:39:23;;;;;;;8.07;1.63;;;6.40;99.90;;;;;;4229517;28;20090;-87
2021/12/20 01:41:24;;;;;;;8.60;1.50;;;6.20;99.90;;;;;;4230399;28;20039;-87
2021/12/20 01:43:25;;;;;;;8.45;1.48;;;6.10;99.90;;;;;;4230732;28;20032;-87
2021/12/20 01:45:28;;;;;;;10.60;1.40;;;6.60;99.90;;;;;;4228978;28;20061;-87
2021/12/20 01:47:32;;;;;;;7.20;0.63;;;6.10;99.90;;;;;;4211967;28;20044;-87
2021/12/20 01:49:39;;;;;;;6.75;0.82;;;6.70;99.90;;;;;;4228710;28;20070;-87
2021/12/20 01:54:00;;;;;;;2.63;0.68;;;6.70;99.90;;;;;;4230678;28;20058;-87
2021/12/20 01:56:01;;;;;;;3.58;0.82;;;6.20;99.90;;;;;;4230490;28;20407;-87
2021/12/20 01:58:01;;;;;;;6.80;0.80;;;6.20;99.90;;;;;;4213729;28;20047;-87
2021/12/20 02:00:09;;;;;;;14.68;2.30;;;6.50;99.90;;;;;;4230152;28;20046;-87
2021/12/20 02:02:10;;;;;;;7.70;1.20;;;5.40;99.90;;;;;;4211496;28;20056;-87
2021/12/20 02:04:12;;;;;;;5.22;1.02;;;5.40;99.90;;;;;;4230095;28;20051;-88
2021/12/20 02:08:29;;;;;;;7.03;2.05;;;6.10;99.90;;;;;;4228573;28;20044;-87
2021/12/20 02:10:31;;;;;;;4.15;0.95;;;5.30;99.90;;;;;;4228844;28;20097;-87
2021/12/20 02:12:31;;;;;;;6.72;0.75;;;5.50;99.90;;;;;;4231288;28;20043;-88
2021/12/20 02:14:32;;;;;;;4.50;0.80;;;6.10;99.90;;;;;;4221408;28;20495;-88
2021/12/20 02:16:35;;;;;;;10.02;1.70;;;6.10;99.90;;;;;;4236220;28;20076;-88
2021/12/20 02:18:36;;;;;;;5.47;0.75;;;5.20;99.90;;;;;;4253201;27;20058;-88
2021/12/20 02:20:37;;;;;;;5.70;0.70;;;5.10;99.90;;;;;;4251155;27;20050;-87
2021/12/20 02:22:39;;;;;;;6.32;1.30;;;5.70;99.90;;;;;;4232470;28;20075;-88
2021/12/20 02:24:39;;;;;;;4.95;1.10;;;5.10;99.90;;;;;;4233853;27;20044;-87
2021/12/20 02:26:43;;;;;;;6.70;1.05;;;5.20;99.90;;;;;;4233304;28;20055;-86
2021/12/20 02:28:46;;;;;;;18.75;1.98;;;5.10;99.90;;;;;;4223635;28;20100;-87
2021/12/20 02:37:40;;;;;;;11.23;1.27;;;6.00;99.90;;;;;;4216186;28;20056;-87
2021/12/20 02:39:43;;;;;;;8.13;0.70;;;5.20;99.90;;;;;;4197865;28;20396;-87
2021/12/20 02:41:44;;;;;;;9.40;1.13;;;5.00;99.90;;;;;;4214258;28;20048;-87
2021/12/20 02:43:57;;;;;;;5.88;0.73;;;5.60;99.90;;;;;;4215177;28;20427;-87
2021/12/20 02:46:01;;;;;;;4.28;0.88;;;5.90;99.90;;;;;;4214269;28;20051;-87
2021/12/20 02:48:03;;;;;;;8.98;1.25;;;5.90;99.90;;;;;;4214773;28;20051;-87
2021/12/20 02:50:05;;;;;;;7.97;1.77;;;4.90;99.90;;;;;;4232984;28;20044;-87
2021/12/20 02:52:08;;;;;;;5.63;0.80;;;4.90;99.90;;;;;;4232115;28;20067;-87
2021/12/20 02:54:11;;;;;;;6.70;1.13;;;6.00;99.90;;;;;;4214959;28;20104;-87
2021/12/20 02:56:12;;;;;;;8.48;0.70;;;4.90;99.90;;;;;;4230175;28;20059;-87
2021/12/20 02:58:12;;;;;;;4.78;1.58;;;4.90;99.90;;;;;;4230247;28;20052;-87
2021/12/20 03:00:14;;;;;;;8.05;0.85;;;4.90;99.90;;;;;;4231908;28;20043;-86
2021/12/20 03:02:16;;;;;;;12.73;1.92;;;4.90;99.90;;;;;;4231476;28;20043;-86
2021/12/20 03:04:17;;;;;;;8.07;0.82;;;4.80;99.90;;;;;;4201897;28;20040;-86
2021/12/20 03:06:26;;;;;;;7.40;1.45;;;4.90;99.90;;;;;;4231971;28;20062;-87
2021/12/20 03:08:30;;;;;;;10.68;1.60;;;5.30;99.90;;;;;;4231720;28;20098;-87
2021/12/20 03:10:32;;;;;;;12.70;1.50;;;5.70;99.90;;;;;;4226498;28;20131;-87
2021/12/20 03:12:33;;;;;;;7.90;0.93;;;5.20;99.90;;;;;;4197049;28;20044;-87
2021/12/20 03:14:42;;;;;;;4.82;1.63;;;5.80;99.90;;;;;;4214785;28;20036;-87
2021/12/20 03:16:42;;;;;;;6.32;1.05;;;4.80;99.90;;;;;;4214666;28;20133;-87
2021/12/20 03:18:43;;;;;;;5.65;1.08;;;4.80;99.90;;;;;;4197170;28;20048;-87
2021/12/20 03:20:44;;;;;;;5.25;0.93;;;5.10;99.90;;;;;;4197684;28;20078;-87
2021/12/20 03:22:45;;;;;;;6.38;1.05;;;5.80;99.90;;;;;;4214354;28;20051;-87
2021/12/20 03:24:47;;;;;;;11.68;1.30;;;5.70;99.90;;;;;;4197823;28;20056;-87
2021/12/20 03:26:48;;;;;;;6.65;0.80;;;4.70;99.90;;;;;;4232154;28;20472;-87
2021/12/20 03:28:51;;;;;;;8.98;1.08;;;4.90;99.90;;;;;;4219290;28;20063;-87
2021/12/20 03:30:51;;;;;;;6.35;0.73;;;5.00;99.90;;;;;;4219863;28;20118;-87
2021/12/20 03:32:52;;;;;;;15.55;1.85;;;4.60;99.90;;;;;;4221708;28;20048;-87
2021/12/20 03:34:53;;;;;;;8.68;1.10;;;5.50;99.90;;;;;;4217978;28;20039;-87
2021/12/20 03:36:54;;;;;;;8.77;1.45;;;4.50;99.90;;;;;;4233822;27;20383;-87
2021/12/20 03:38:55;;;;;;;5.28;1.58;;;4.80;99.90;;;;;;4231352;28;20126;-87
2021/12/20 03:40:55;;;;;;;6.03;0.90;;;4.40;99.90;;;;;;4249037;27;20459;-87
2021/12/20 03:42:57;;;;;;;15.65;0.95;;;5.50;99.90;;;;;;4213956;28;20169;-87
2021/12/20 03:44:58;;;;;;;4.95;0.82;;;5.00;99.90;;;;;;4251341;27;20094;-87
2021/12/20 03:47:00;;;;;;;7.70;1.08;;;4.60;99.90;;;;;;4266047;27;20038;-87
2021/12/20 03:49:01;;;;;;;8.57;1.55;;;5.10;99.90;;;;;;4247576;27;20046;-87
2021/12/20 03:51:04;;;;;;;6.03;1.00;;;4.60;99.90;;;;;;4230995;28;20051;-87
2021/12/20 03:53:06;;;;;;;9.90;1.23;;;4.30;99.90;;;;;;4248034;27;20054;-87
2021/12/20 03:55:09;;;;;;;10.13;0.85;;;4.20;99.90;;;;;;4230852;28;20046;-87
2021/12/20 03:57:10;;;;;;;8.68;0.77;;;4.20;99.90;;;;;;4230704;28;20051;-88
2021/12/20 03:59:11;;;;;;;13.07;2.00;;;5.10;99.90;;;;;;4219851;28;20073;-88
2021/12/20 04:01:13;;;;;;;11.00;1.42;;;4.10;99.90;;;;;;4222371;28;20043;-88
2021/12/20 04:03:14;;;;;;;6.20;1.23;;;4.30;99.90;;;;;;4248690;27;20116;-88
2021/12/20 04:05:16;;;;;;;3.67;0.77;;;4.90;99.90;;;;;;4248632;27;20444;-88
2021/12/20 04:07:16;;;;;;;7.05;0.90;;;4.30;99.90;;;;;;4248969;27;20038;-87
2021/12/20 04:09:19;;;;;;;7.57;1.20;;;4.10;99.90;;;;;;4231200;28;20075;-87
2021/12/20 04:11:22;;;;;;;6.88;1.30;;;3.80;99.90;;;;;;4230131;28;20059;-87
2021/12/20 04:13:26;;;;;;;7.32;1.23;;;4.80;99.90;;;;;;4248885;27;20513;-87
2021/12/20 04:15:27;;;;;;;5.43;1.27;;;3.70;99.90;;;;;;4230754;28;20054;-87
2021/12/20 04:17:28;;;;;;;6.60;1.13;;;3.80;99.90;;;;;;4233306;27;20050;-87
2021/12/20 04:19:29;;;;;;;2.58;0.40;;;4.20;99.90;;;;;;4230560;28;20043;-87
2021/12/20 04:21:30;;;;;;;7.68;1.33;;;3.50;99.90;;;;;;4248862;27;20051;-87
2021/12/20 04:23:31;;;;;;;10.38;2.30;;;4.60;99.90;;;;;;4227537;28;20035;-88
2021/12/20 04:25:32;;;;;;;5.50;1.10;;;4.30;99.90;;;;;;4230260;28;20131;-88
2021/12/20 04:27:33;;;;;;;6.63;1.35;;;3.60;99.90;;;;;;4248623;27;20039;-88
2021/12/20 04:29:33;;;;;;;7.40;1.40;;;3.80;99.90;;;;;;4216378;28;20047;-88
2021/12/20 04:31:35;;;;;;;8.98;1.85;;;3.20;99.90;;;;;;4214092;28;20052;-87
2021/12/20 04:33:40;;;;;;;9.40;1.52;;;4.10;99.90;;;;;;4229997;28;20063;-88
2021/12/20 04:35:45;;;;;;;5.68;0.80;;;3.40;99.90;;;;;;4212662;28;20127;-88
2021/12/20 04:37:47;;;;;;;3.63;0.90;;;3.40;99.90;;;;;;4248489;27;20051;-88
2021/12/20 04:39:48;;;;;;;9.45;2.25;;;3.70;99.90;;;;;;4213303;28;20578;-87
2021/12/20 04:41:50;;;;;;;9.35;1.58;;;3.60;99.90;;;;;;4229753;28;20081;-87
2021/12/20 04:43:52;;;;;;;10.07;1.20;;;3.60;99.90;;;;;;4230407;28;20503;-88
2021/12/20 04:45:53;;;;;;;6.97;1.10;;;3.20;99.90;;;;;;4230640;28;20050;-88
2021/12/20 04:47:56;;;;;;;6.13;0.80;;;4.20;99.90;;;;;;4230236;28;20047;-88
2021/12/20 04:49:59;;;;;;;12.43;1.30;;;3.60;99.90;;;;;;4231036;28;20122;-88
2021/12/20 04:51:59;;;;;;;6.85;1.25;;;3.10;99.90;;;;;;4245250;27;20135;-87
2021/12/20 04:54:02;;;;;;;4.10;0.70;;;3.20;99.90;;;;;;4248848;27;20035;-87
2021/12/20 04:56:03;;;;;;;5.20;0.80;;;3.10;99.90;;;;;;4214612;28;20052;-87
2021/12/20 04:58:06;;;;;;;6.50;1.10;;;3.10;99.90;;;;;;4218925;28;20052;-87
2021/12/20 05:00:11;;;;;;;6.32;1.08;;;4.30;99.90;;;;;;4215457;28;20133;-87
2021/12/20 05:02:12;;;;;;;7.53;2.33;;;3.20;99.90;;;;;;4215482;28;20567;-87
2021/12/20 05:04:13;;;;;;;6.10;1.48;;;3.70;99.90;;;;;;4251852;27;20055;-87
2021/12/20 05:06:13;;;;;;;5.25;1.35;;;3.20;99.90;;;;;;4216259;28;20091;-87
2021/12/20 05:08:15;;;;;;;8.35;1.13;;;3.60;99.90;;;;;;4234319;28;20204;-87
2021/12/20 05:10:26;;;;;;;4.50;0.80;;;3.00;99.90;;;;;;4226169;28;20040;-86
2021/12/20 05:12:27;;;;;;;8.65;1.08;;;3.20;99.90;;;;;;4274394;27;20042;-87
2021/12/20 05:14:29;;;;;;;12.02;1.70;;;2.50;99.90;;;;;;4235879;28;20055;-87
2021/12/20 05:16:31;;;;;;;3.50;0.73;;;3.20;99.90;;;;;;4242390;27;20055;-88
2021/12/20 05:18:31;;;;;;;5.20;1.75;;;3.90;99.90;;;;;;4231059;28;20105;-88
2021/12/20 05:20:32;;;;;;;7.15;1.67;;;4.00;99.90;;;;;;4248121;27;20043;-88
2021/12/20 05:22:34;;;;;;;10.43;1.30;;;3.10;99.90;;;;;;4248494;27;20050;-88
2021/12/20 05:24:37;;;;;;;4.57;0.70;;;3.00;99.90;;;;;;4246556;27;20043;-88
2021/12/20 05:26:38;;;;;;;7.57;0.88;;;3.80;99.90;;;;;;4230901;28;20507;-88
2021/12/20 05:28:39;;;;;;;5.65;0.90;;;4.00;99.90;;;;;;4231251;28;20086;-86
2021/12/20 05:30:41;;;;;;;5.88;1.27;;;3.80;99.90;;;;;;4231444;28;20051;-89
2021/12/20 05:32:43;;;;;;;5.93;1.40;;;2.90;99.90;;;;;;4231542;28;20554;-89
2021/12/20 05:34:43;;;;;;;9.50;1.52;;;3.10;99.90;;;;;;4240961;28;20039;-89
2021/12/20 05:36:44;;;;;;;3.45;0.90;;;3.70;99.90;;;;;;4213681;28;20424;-89
2021/12/20 05:38:46;;;;;;;9.43;1.23;;;2.80;99.90;;;;;;4230838;28;20555;-88
2021/12/20 05:40:47;;;;;;;10.70;1.52;;;3.30;99.90;;;;;;4231142;28;20031;-89
2021/12/20 05:42:49;;;;;;;15.13;1.38;;;2.70;99.90;;;;;;4214363;28;20123;-89
2021/12/20 05:44:51;;;;;;;6.88;1.17;;;3.50;99.90;;;;;;4215683;28;20060;-89
2021/12/20 05:46:53;;;;;;;4.25;1.23;;;3.30;99.90;;;;;;4218031;28;20534;-88
2021/12/20 05:48:56;;;;;;;10.20;1.00;;;2.70;99.90;;;;;;4215213;28;20432;-89
2021/12/20 05:50:56;;;;;;;3.70;1.30;;;2.60;99.90;;;;;;4214394;28;20044;-89
2021/12/20 05:52:57;;;;;;;8.10;1.50;;;3.40;99.90;;;;;;4243597;27;20047;-88
2021/12/20 05:54:58;;;;;;;13.23;1.08;;;2.60;99.90;;;;;;4235014;28;20108;-89
2021/12/20 05:57:00;;;;;;;14.23;1.73;;;2.60;99.90;;;;;;4217311;28;20458;-88
2021/12/20 05:59:00;;;;;;;11.25;1.00;;;3.60;99.90;;;;;;4233654;28;20043;-88
2021/12/20 06:01:01;;;;;;;2.85;1.00;;;2.70;99.90;;;;;;4238875;27;20050;-88
2021/12/20 06:03:02;;;;;;;7.30;1.30;;;3.40;99.90;;;;;;4227428;28;20053;-88
2021/12/20 06:05:05;;;;;;;7.30;0.93;;;3.60;99.90;;;;;;4238955;27;20470;-88
2021/12/20 06:07:09;;;;;;;6.50;1.33;;;2.40;99.90;;;;;;4234024;28;20458;-88
2021/12/20 06:09:09;;;;;;;3.17;1.00;;;3.00;99.90;;;;;;4233573;28;20074;-88
2021/12/20 06:11:10;;;;;;;12.45;1.52;;;2.20;99.90;;;;;;4244938;27;20039;-88
2021/12/20 06:13:11;;;;;;;8.82;1.58;;;;;;;;;;4252039;27;20054;-88
2021/12/20 06:15:13;;;;;;;6.53;0.93;;;;;;;;;;4251412;27;20043;-89
2021/12/20 06:17:15;;;;;;;6.55;1.13;;;;;;;;;;4234196;28;20035;-88
2021/12/20 06:19:16;;;;;;;9.48;2.30;;;;;;;;;;4234603;28;20097;-89
2021/12/20 06:21:18;;;;;;;7.43;2.28;;;;;;;;;;4216447;28;20140;-88
2021/12/20 06:23:20;;;;;;;5.72;1.70;;;;;;;;;;4245300;27;20582;-88
2021/12/20 06:25:22;;;;;;;6.78;2.10;;;;;;;;;;4233514;28;20113;-87
2021/12/20 06:27:23;;;;;;;8.23;2.60;;;;;;;;;;4251363;27;20093;-89
2021/12/20 06:29:28;;;;;;;8.88;1.90;;;;;;;;;;4250510;27;20126;-87
2021/12/20 06:31:31;;;;;;;8.65;1.73;;;;;;;;;;4250789;27;20059;-85
2021/12/20 06:33:32;;;;;;;11.15;1.38;;;;;;;;;;4233522;28;20236;-88
2021/12/20 06:35:33;;;;;;;8.00;1.00;;;;;;;;;;4232045;28;20046;-87
2021/12/20 06:37:34;;;;;;;5.78;1.50;;;;;;;;;;4248512;27;20109;-86
2021/12/20 06:39:37;;;;;;;6.57;1.40;;;;;;;;;;4232755;28;20054;-88
2021/12/20 06:41:39;;;;;;;13.63;2.28;;;;;;;;;;4216160;28;20085;-88
2021/12/20 06:43:41;;;;;;;9.40;1.58;;;;;;;;;;4251207;27;20126;-87
2021/12/20 06:45:42;;;;;;;6.85;1.50;;;;;;;;;;4216239;28;20048;-88
2021/12/20 06:47:43;;;;;;;9.52;2.53;;;;;;;;;;4251053;27;20050;-87
2021/12/20 06:49:44;;;;;;;10.30;2.60;;;2.30;99.90;;;;;;4215328;28;20078;-88
2021/12/20 06:51:46;;;;;;;4.43;1.50;;;2.00;99.90;;;;;;4218021;28;20484;-88
2021/12/20 06:53:46;;;;;;;4.13;1.50;;;1.90;99.90;;;;;;4233125;27;20044;-87
2021/12/20 06:55:48;;;;;;;5.25;1.30;;;2.20;99.90;;;;;;4251004;27;20105;-88
2021/12/20 06:57:49;;;;;;;8.63;1.48;;;2.00;99.90;;;;;;4233173;28;20058;-88
2021/12/20 06:59:54;;;;;;;10.07;1.40;;;2.50;99.90;;;;;;4232827;28;20484;-87
2021/12/20 07:01:54;;;;;;;4.22;1.20;;;1.80;99.90;;;;;;4232490;28;20061;-87
2021/12/20 07:03:55;;;;;;;7.93;1.40;;;1.80;99.90;;;;;;4250104;27;20066;-86
2021/12/20 07:05:56;;;;;;;4.10;1.10;;;2.50;99.90;;;;;;4215794;28;20044;-88
2021/12/20 07:07:57;;;;;;;7.72;1.40;;;1.90;99.90;;;;;;4232990;28;20419;-89
2021/12/20 07:09:59;;;;;;;5.78;1.08;;;2.00;99.90;;;;;;4240544;27;20050;-89
2021/12/20 07:12:02;;;;;;;9.35;1.60;;;2.30;99.90;;;;;;4216133;28;20043;-89
2021/12/20 07:14:04;;;;;;;11.00;1.58;;;2.20;99.90;;;;;;4232731;28;20103;-89
2021/12/20 07:16:06;;;;;;;4.53;1.02;;;1.70;99.90;;;;;;4247918;27;20095;-86
2021/12/20 07:18:07;;;;;;;7.53;1.25;;;2.50;99.90;;;;;;4232283;28;20047;-88
2021/12/20 07:20:09;;;;;;;7.80;1.70;;;1.70;99.90;;;;;;4232485;28;20476;-89
2021/12/20 07:22:10;;;;;;;19.75;3.33;;;1.70;99.90;;;;;;4215225;28;20122;-88
2021/12/20 07:24:17;;;;;;;6.75;1.10;;;1.80;99.90;;;;;;4215141;28;20134;-88
2021/12/20 07:26:24;;;;;;;15.32;1.55;;;1.80;99.90;;;;;;4232547;27;20052;-88
2021/12/20 07:28:32;;;;;;;4.47;1.30;;;1.80;99.90;;;;;;4220390;28;20048;-89
2021/12/20 07:30:41;;;;;;;10.15;2.17;;;1.70;99.90;;;;;;4234118;28;20109;-90
2021/12/20 07:32:48;;;;;;;6.68;1.67;;;1.60;99.90;;;;;;4216518;28;20051;-90
2021/12/20 07:34:50;;;;;;;4.13;1.10;;;2.20;99.90;;;;;;4241447;27;20075;-91
2021/12/20 07:36:53;;;;;;;14.73;3.13;;;1.90;99.90;;;;;;4234027;28;20131;-90
2021/12/20 07:39:05;;;;;;;75.72;22.33;;;2.00;99.90;;;;;;4217383;28;20161;-90
2021/12/20 07:41:20;;;;;;;227.75;59.08;;;2.00;99.90;;;;;;4217881;28;20584;-90
2021/12/20 07:43:31;;;;;;;182.25;54.25;;;1.80;99.90;;;;;;4220969;28;20040;-91
2021/12/20 07:45:32;;;;;;;122.60;38.60;;;1.60;99.90;;;;;;4235164;28;20051;-90
2021/12/20 07:47:33;;;;;;;59.60;17.73;;;1.60;99.90;;;;;;4256831;27;20047;-90
2021/12/20 07:49:34;;;;;;;62.17;18.48;;;1.60;99.90;;;;;;4235989;28;20134;-90
2021/12/20 07:51:37;;;;;;;67.22;19.77;;;1.50;99.90;;;;;;4238004;28;20043;-93
2021/12/20 07:53:48;;;;;;;72.45;21.77;;;1.50;99.90;;;;;;4252773;27;20452;-91
2021/12/20 07:55:56;;;;;;;68.75;21.42;;;1.10;99.90;;;;;;4241720;28;20094;-90
2021/12/20 07:58:00;;;;;;;48.25;15.80;;;1.30;99.90;;;;;;4242897;28;20075;-90
2021/12/20 08:00:12;;;;;;;28.42;7.93;;;0.70;99.90;;;;;;4228947;28;20035;-88
2021/12/20 08:02:15;;;;;;;29.98;8.02;;;1.50;99.90;;;;;;4250696;27;20054;-89
2021/12/20 08:04:18;;;;;;;25.00;8.82;;;2.20;99.90;;;;;;4233145;28;20050;-90
2021/12/20 08:06:24;;;;;;;23.83;7.40;;;1.50;99.90;;;;;;4216359;28;20109;-89
2021/12/20 08:08:28;;;;;;;21.95;6.68;;;1.50;99.90;;;;;;4216408;28;20171;-90
2021/12/20 08:10:35;;;;;;;21.95;6.55;;;1.50;99.90;;;;;;4241180;27;20043;-89
2021/12/20 08:12:37;;;;;;;15.40;4.53;;;1.80;99.90;;;;;;4236278;28;20042;-89
2021/12/20 08:14:38;;;;;;;21.90;4.88;;;1.40;99.90;;;;;;4231586;28;20043;-89
2021/12/20 08:16:41;;;;;;;17.20;5.00;;;2.40;99.90;;;;;;4224192;28;20134;-90
2021/12/20 08:18:44;;;;;;;20.20;6.60;;;2.20;99.90;;;;;;4222012;28;20050;-90
2021/12/20 08:20:48;;;;;;;17.42;3.75;;;2.50;99.90;;;;;;4232440;28;20522;-89
2021/12/20 08:22:49;;;;;;;6.97;3.17;;;1.70;99.90;;;;;;4234835;28;20681;-89
2021/12/20 08:24:52;;;;;;;16.75;4.20;;;2.50;99.90;;;;;;4216220;28;20514;-89
2021/12/20 08:26:54;;;;;;;13.77;4.35;;;1.10;99.90;;;;;;4232086;28;20051;-89
2021/12/20 08:28:55;;;;;;;16.73;4.22;;;1.80;99.90;;;;;;4241300;27;20046;-89
2021/12/20 08:30:57;;;;;;;16.02;5.28;;;2.00;99.90;;;;;;4231622;28;20507;-88
2021/12/20 08:32:58;;;;;;;16.65;3.83;;;2.10;99.90;;;;;;4229595;28;20039;-86
2021/12/20 08:35:00;;;;;;;13.68;3.75;;;2.20;99.90;;;;;;4221890;28;20099;-87
2021/12/20 08:37:04;;;;;;;15.30;3.50;;;2.30;99.90;;;;;;4251007;27;20054;-86
2021/12/20 08:39:06;;;;;;;11.85;3.38;;;2.50;99.90;;;;;;4251149;27;20132;-86
2021/12/20 08:41:08;;;;;;;12.35;2.78;;;3.10;99.90;;;;;;4249643;27;20039;-85
2021/12/20 08:43:09;;;;;;;10.25;2.85;;;3.80;99.90;;;;;;4233195;28;20093;-86
2021/12/20 08:45:13;;;;;;;8.75;2.47;;;3.50;99.90;;;;;;4216244;28;20052;-87
2021/12/20 08:47:14;;;;;;;11.50;3.05;;;3.90;99.90;;;;;;4215496;28;20109;-86
2021/12/20 08:49:16;;;;;;;11.07;3.20;;;3.40;99.90;;;;;;4254263;27;20049;-86
2021/12/20 08:51:17;;;;;;;9.50;2.00;;;4.10;99.90;;;;;;4228096;28;20055;-86
2021/12/20 08:53:18;;;;;;;12.13;2.00;;;3.00;99.90;;;;;;4219342;28;20048;-86
2021/12/20 08:55:19;;;;;;;9.52;1.83;;;4.20;99.90;;;;;;4233835;28;20048;-87
2021/12/20 08:57:20;;;;;;;6.80;2.63;;;4.20;99.90;;;;;;4250542;27;20466;-87
2021/12/20 08:59:21;;;;;;;11.55;1.90;;;5.90;99.90;;;;;;4219951;28;20051;-87
2021/12/20 09:01:23;;;;;;;6.70;2.00;;;5.30;99.90;;;;;;4214931;28;20405;-87
2021/12/20 09:03:25;;;;;;;7.07;1.38;;;6.30;99.90;;;;;;4216999;28;20048;-87
2021/12/20 09:05:32;;;;;;;7.18;2.50;;;5.60;99.90;;;;;;4232642;28;20049;-87
2021/12/20 09:07:36;;;;;;;10.10;2.13;;;5.90;99.90;;;;;;4230729;28;20047;-87
2021/12/20 09:09:39;;;;;;;6.40;1.10;;;7.60;99.90;;;;;;4252120;27;20043;-87
2021/12/20 09:11:40;;;;;;;12.23;2.03;;;;;;;;;;4245879;27;20139;-88
2021/12/20 09:13:41;;;;;;;7.13;1.50;;;7.80;99.90;;;;;;4250776;27;20043;-87
2021/12/20 09:15:46;;;;;;;8.77;2.47;;;;;;;;;;4249968;27;20092;-87
2021/12/20 09:17:49;;;;;;;7.75;1.55;;;;;;;;;;4256100;27;20113;-87
2021/12/20 09:19:51;;;;;;;5.88;1.02;;;;;;;;;;4265757;27;20100;-87
2021/12/20 09:21:57;;;;;;;9.77;1.35;;;;;;;;;;4231445;28;20048;-88
2021/12/20 09:24:00;;;;;;;5.30;1.00;;;;;;;;;;4273508;27;20038;-88
2021/12/20 09:26:04;;;;;;;6.10;1.65;;;;;;;;;;4248939;28;20115;-87
2021/12/20 09:28:10;;;;;;;3.50;1.20;;;;;;;;;;4283565;27;20115;-87
2021/12/20 09:30:14;;;;;;;5.47;0.98;;;;;;;;;;4276757;27;20169;-87
2021/12/20 09:32:16;;;;;;;9.20;1.30;;;;;;;;;;4254071;28;20072;-88
2021/12/20 09:34:30;;;;;;;4.78;1.08;;;;;;;;;;4234635;28;20491;-88
2021/12/20 09:36:33;;;;;;;5.60;1.42;;;;;;;;;;4262900;27;20057;-87
2021/12/20 09:39:02;;;;;;;6.75;1.35;;;;;;;;;;4251470;28;20096;-88
2021/12/20 09:41:15;;;;;;;9.05;2.25;;;;;;;;;;4251058;28;20170;-88
2021/12/20 09:43:16;;;;;;;8.15;1.45;;;;;;;;;;4250390;28;20043;-88
2021/12/20 09:45:26;;;;;;;10.32;2.08;;;;;;;;;;4248940;28;20047;-88
2021/12/20 09:47:34;;;;;;;5.63;1.30;;;;;;;;;;4266902;27;20057;-87
2021/12/20 09:49:36;;;;;;;9.32;1.63;;;;;;;;;;4266347;27;20479;-87
2021/12/20 09:51:39;;;;;;;5.38;1.60;;;;;;;;;;4245623;28;20050;-88
2021/12/20 09:53:41;;;;;;;4.25;1.20;;;;;;;;;;4248116;28;20402;-88
2021/12/20 09:55:52;;;;;;;7.07;0.90;;;;;;;;;;4248503;27;20131;-88
2021/12/20 09:57:58;;;;;;;6.53;0.93;;;;;;;;;;4248003;28;20050;-88
2021/12/20 10:00:03;;;;;;;5.38;1.20;;;;;;;;;;4213631;28;20073;-88
2021/12/20 10:02:07;;;;;;;6.32;1.73;;;;;;;;;;4230164;28;20058;-88
2021/12/20 10:04:08;;;;;;;5.55;1.38;;;;;;;;;;4232059;28;20043;-88
2021/12/20 10:06:12;;;;;;;11.43;1.50;;;;;;;;;;4246493;28;20051;-88
2021/12/20 10:08:19;;;;;;;7.60;1.92;;;;;;;;;;4247299;28;20047;-88
2021/12/20 10:10:41;;;;;;;9.05;2.20;;;;;;;;;;4226466;28;20529;-91
2021/12/20 10:12:52;;;;;;;12.43;2.45;;;;;;;;;;4248672;27;20040;-87
2021/12/20 10:15:14;;;;;;;8.18;2.50;;;;;;;;;;4230185;28;20161;-87
2021/12/20 10:17:18;;;;;;;12.85;3.17;;;;;;;;;;4224711;28;20039;-87
2021/12/20 10:19:34;;;;;;;9.15;2.45;;;;;;;;;;4212720;28;20060;-88
2021/12/20 10:21:45;;;;;;;5.18;1.65;;;;;;;;;;4232442;28;20048;-87
2021/12/20 10:23:48;;;;;;;6.93;1.55;;;;;;;;;;4265198;27;20039;-87
2021/12/20 10:25:52;;;;;;;6.38;1.70;;;;;;;;;;4266554;27;20121;-88
2021/12/20 10:27:56;;;;;;;5.15;1.83;;;;;;;;;;4247834;28;20044;-89
2021/12/20 10:30:16;;;;;;;12.05;2.45;;;;;;;;;;4213709;28;20040;-87
2021/12/20 10:32:37;;;;;;;17.52;2.38;;;;;;;;;;4213105;28;20048;-87
2021/12/20 10:34:41;;;;;;;7.18;2.30;;;;;;;;;;4220147;28;20054;-88
2021/12/20 10:36:52;;;;;;;7.13;2.15;;;;;;;;;;4214912;28;20056;-88
2021/12/20 10:38:57;;;;;;;11.30;1.75;;;;;;;;;;4251793;27;20050;-88
2021/12/20 10:41:01;;;;;;;11.88;3.35;;;9.00;98.20;;;;;;4233590;28;20233;-89
2021/12/20 10:43:06;;;;;;;13.98;2.53;;;11.20;98.70;;;;;;4234861;28;20051;-89
2021/12/20 10:45:13;;;;;;;13.05;2.58;;;;;;;;;;4239074;28;20122;-87
2021/12/20 10:47:28;;;;;;;11.25;2.20;;;;;;;;;;4227415;28;20104;-88
2021/12/20 10:49:33;;;;;;;15.52;2.97;;;;;;;;;;4262461;27;20047;-89
2021/12/20 10:51:35;;;;;;;13.02;2.67;;;;;;;;;;4253087;27;20051;-88
2021/12/20 10:53:37;;;;;;;13.43;2.22;;;;;;;;;;4220155;28;20048;-88
2021/12/20 10:55:48;;;;;;;14.65;2.53;;;;;;;;;;4235287;28;20047;-88
2021/12/20 10:57:50;;;;;;;17.38;2.55;;;;;;;;;;4217174;28;20064;-88
2021/12/20 11:00:11;;;;;;;10.50;2.28;;;11.20;97.70;;;;;;4234691;28;20117;-88
2021/12/20 11:03:10;;;;;;;13.40;1.80;;;;;;;;;;4217174;28;20044;-88
2021/12/20 11:05:00;;;;;;;16.35;2.55;;;;;;;;;;4250235;27;20050;-88
2021/12/20 11:09:13;;;;;;;9.85;2.65;;;;;;;;;;4251920;27;20117;-89
2021/12/20 11:11:15;;;;;;;12.52;2.92;;;;;;;;;;4262995;27;20051;-88
2021/12/20 11:13:17;;;;;;;12.95;3.05;;;;;;;;;;4238925;27;20114;-88
2021/12/20 11:15:17;;;;;;;13.15;2.70;;;12.20;96.10;;;;;;4234169;28;20060;-88
2021/12/20 11:17:24;;;;;;;15.65;3.25;;;12.80;94.00;;;;;;4229430;28;20055;-88
2021/12/20 11:19:28;;;;;;;14.32;2.58;;;12.80;91.90;;;;;;4234666;28;20109;-88